createdAt,value
2022-12-01T00:01:39.007Z,101426.64
2022-12-01T00:04:07.742Z,101426.45
2022-12-01T00:06:36.905Z,101429.36
2022-12-01T00:09:24.202Z,101432.08
2022-12-01T00:11:52.768Z,101437.35
2022-12-01T00:14:21.312Z,101438.89
2022-12-01T00:16:49.946Z,101440.65
2022-12-01T00:19:18.509Z,101444.61
2022-12-01T00:21:47.054Z,101443.56
2022-12-01T00:24:15.584Z,101442.00
2022-12-01T00:26:44.117Z,101443.38
2022-12-01T00:29:12.698Z,101444.77
2022-12-01T00:31:41.770Z,101440.58
2022-12-01T00:34:23.913Z,101443.15
2022-12-01T00:36:52.699Z,101441.11
2022-12-01T00:39:21.367Z,101441.16
2022-12-01T00:41:49.876Z,101441.20
2022-12-01T00:44:18.379Z,101441.58
2022-12-01T00:46:46.996Z,101441.61
2022-12-01T00:49:15.964Z,101439.05
2022-12-01T00:51:44.509Z,101436.13
2022-12-01T00:54:13.119Z,101438.02
2022-12-01T00:56:41.673Z,101436.67
2022-12-01T00:59:10.322Z,101438.59
2022-12-01T01:01:39.083Z,101439.83
2022-12-01T01:04:07.785Z,101437.31
2022-12-01T01:06:37.391Z,101431.66
2022-12-01T01:09:05.925Z,101431.70
2022-12-01T01:11:34.423Z,101432.63
2022-12-01T01:14:04.217Z,101424.70
2022-12-01T01:16:34.175Z,101416.83
2022-12-01T01:19:02.841Z,101414.59
2022-12-01T01:21:31.732Z,101416.46
2022-12-01T01:24:00.450Z,101417.30
2022-12-01T01:26:31.916Z,101411.02
2022-12-01T01:29:03.087Z,101412.85
2022-12-01T01:31:31.764Z,101407.13
2022-12-01T01:34:00.869Z,101404.83
2022-12-01T01:36:29.732Z,101405.83
2022-12-01T01:38:58.349Z,101405.94
2022-12-01T01:41:26.932Z,101401.59
2022-12-01T01:44:03.037Z,101399.45
2022-12-01T01:46:35.117Z,101397.63
2022-12-01T01:49:11.519Z,101391.20
2022-12-01T01:51:54.311Z,101391.31
2022-12-01T01:54:28.663Z,101390.23
2022-12-01T01:56:58.712Z,101388.64
2022-12-01T01:59:37.423Z,101387.23
2022-12-01T02:02:09.758Z,101385.16
2022-12-01T02:04:48.881Z,101387.57
2022-12-01T02:07:19.458Z,101383.62
2022-12-01T02:09:48.521Z,101384.29
2022-12-01T02:12:37.416Z,101385.45
2022-12-01T02:15:26.148Z,101384.73
2022-12-01T02:18:18.118Z,101388.16
2022-12-01T02:21:09.000Z,101386.92
2022-12-01T02:24:08.151Z,101390.54
2022-12-01T02:26:39.893Z,101391.01
2022-12-01T02:29:49.676Z,101389.27
2022-12-01T02:32:46.155Z,101391.02
2022-12-01T02:35:56.326Z,101385.83
2022-12-01T02:39:21.994Z,101384.13
2022-12-01T02:41:59.139Z,101380.71
2022-12-01T02:44:37.354Z,101380.02
2022-12-01T02:47:16.143Z,101374.09
2022-12-01T02:49:51.458Z,101371.99
2022-12-01T02:52:22.304Z,101370.59
2022-12-01T02:54:52.149Z,101372.14
2022-12-01T02:57:20.732Z,101364.89
2022-12-01T02:59:53.576Z,101366.11
2022-12-01T03:03:24.117Z,101363.30
2022-12-01T03:06:51.674Z,101360.19
2022-12-01T03:10:09.579Z,101357.95
2022-12-01T03:12:53.208Z,101354.19
2022-12-01T03:16:03.289Z,101352.66
2022-12-01T03:18:53.043Z,101356.96
2022-12-01T03:21:32.384Z,101356.60
2022-12-01T03:24:11.856Z,101355.05
2022-12-01T03:26:46.118Z,101359.17
2022-12-01T03:29:21.925Z,101359.17
2022-12-01T03:32:03.451Z,101355.92
2022-12-01T03:34:59.283Z,101355.89
2022-12-01T03:37:39.337Z,101358.13
2022-12-01T03:40:14.712Z,101355.55
2022-12-01T03:42:47.563Z,101353.83
2022-12-01T03:45:26.903Z,101349.74
2022-12-01T03:47:55.618Z,101344.40
2022-12-01T03:50:42.717Z,101348.15
2022-12-01T03:53:27.855Z,101343.98
2022-12-01T03:56:03.807Z,101346.88
2022-12-01T03:58:40.358Z,101349.27
2022-12-01T04:01:09.342Z,101346.15
2022-12-01T04:03:38.530Z,101345.79
2022-12-01T04:06:07.406Z,101346.98
2022-12-01T04:08:37.598Z,101345.56
2022-12-01T04:11:32.182Z,101346.40
2022-12-01T04:14:01.127Z,101346.23
2022-12-01T04:16:29.703Z,101350.70
2022-12-01T04:18:58.334Z,101354.82
2022-12-01T04:21:26.913Z,101355.33
2022-12-01T04:24:01.737Z,101355.14
2022-12-01T04:26:36.564Z,101355.31
2022-12-01T04:29:11.480Z,101353.59
2022-12-01T04:31:40.522Z,101352.04
2022-12-01T04:34:10.232Z,101353.40
2022-12-01T04:36:38.997Z,101352.02
2022-12-01T04:39:07.581Z,101352.35
2022-12-01T04:41:36.156Z,101353.02
2022-12-01T04:44:04.856Z,101351.98
2022-12-01T04:46:33.452Z,101350.93
2022-12-01T04:49:02.045Z,101353.55
2022-12-01T04:51:30.718Z,101357.17
2022-12-01T04:53:59.458Z,101359.76
2022-12-01T04:56:27.997Z,101362.31
2022-12-01T04:58:56.625Z,101360.76
2022-12-01T05:01:25.601Z,101360.05
2022-12-01T05:03:54.211Z,101360.53
2022-12-01T05:06:26.657Z,101361.36
2022-12-01T05:08:58.921Z,101362.87
2022-12-01T05:11:30.123Z,101361.30
2022-12-01T05:13:59.485Z,101362.48
2022-12-01T05:16:32.541Z,101364.36
2022-12-01T05:19:23.510Z,101361.04
2022-12-01T05:21:52.761Z,101359.80
2022-12-01T05:24:22.498Z,101360.45
2022-12-01T05:26:51.049Z,101359.58
2022-12-01T05:29:19.724Z,101362.84
2022-12-01T05:31:48.364Z,101361.60
2022-12-01T05:34:17.125Z,101361.05
2022-12-01T05:36:45.672Z,101358.77
2022-12-01T05:39:14.479Z,101359.48
2022-12-01T05:41:43.016Z,101361.02
2022-12-01T05:44:11.548Z,101359.60
2022-12-01T05:46:40.113Z,101358.70
2022-12-01T05:49:08.625Z,101361.31
2022-12-01T05:51:37.207Z,101359.27
2022-12-01T05:54:05.836Z,101357.15
2022-12-01T05:56:34.414Z,101359.38
2022-12-01T05:59:02.964Z,101362.10
2022-12-01T06:01:31.454Z,101363.64
2022-12-01T06:04:00.162Z,101360.71
2022-12-01T06:06:28.771Z,101362.60
2022-12-01T06:08:57.311Z,101361.35
2022-12-01T06:11:25.828Z,101364.58
2022-12-01T06:13:54.350Z,101363.01
2022-12-01T06:16:22.982Z,101361.92
2022-12-01T06:18:51.616Z,101358.40
2022-12-01T06:21:20.205Z,101358.36
2022-12-01T06:23:48.822Z,101356.73
2022-12-01T06:26:17.454Z,101356.00
2022-12-01T06:28:45.955Z,101358.36
2022-12-01T06:31:14.578Z,101362.42
2022-12-01T06:33:43.101Z,101363.38
2022-12-01T06:36:11.626Z,101367.30
2022-12-01T06:38:40.218Z,101362.27
2022-12-01T06:41:08.747Z,101365.02
2022-12-01T06:43:40.312Z,101368.08
2022-12-01T06:46:08.845Z,101364.41
2022-12-01T06:48:37.493Z,101366.15
2022-12-01T06:51:06.071Z,101369.20
2022-12-01T06:53:34.782Z,101367.29
2022-12-01T06:56:05.269Z,101369.83
2022-12-01T06:58:34.786Z,101372.02
2022-12-01T07:01:12.307Z,101370.09
2022-12-01T07:03:40.971Z,101369.84
2022-12-01T07:06:09.729Z,101372.18
2022-12-01T07:08:38.300Z,101372.95
2022-12-01T07:11:13.563Z,101377.03
2022-12-01T07:13:47.281Z,101380.59
2022-12-01T07:16:16.323Z,101377.42
2022-12-01T07:18:45.240Z,101380.63
2022-12-01T07:21:15.939Z,101382.48
2022-12-01T07:23:44.512Z,101386.02
2022-12-01T07:26:17.318Z,101385.72
2022-12-01T07:28:46.178Z,101389.20
2022-12-01T07:31:18.195Z,101392.36
2022-12-01T07:33:47.031Z,101394.82
2022-12-01T07:36:15.772Z,101395.23
2022-12-01T07:38:44.464Z,101394.63
2022-12-01T07:41:21.803Z,101396.58
2022-12-01T07:43:51.201Z,101394.60
2022-12-01T07:46:24.729Z,101395.17
2022-12-01T07:48:55.345Z,101398.67
2022-12-01T07:51:25.760Z,101406.61
2022-12-01T07:53:54.913Z,101403.73
2022-12-01T07:56:24.197Z,101403.90
2022-12-01T07:58:52.683Z,101404.95
2022-12-01T08:01:23.837Z,101402.96
2022-12-01T08:03:56.738Z,101400.44
2022-12-01T08:06:26.586Z,101396.21
2022-12-01T08:08:55.225Z,101396.80
2022-12-01T08:11:26.851Z,101396.02
2022-12-01T08:13:56.295Z,101393.67
2022-12-01T08:16:25.943Z,101398.45
2022-12-01T08:18:54.969Z,101396.33
2022-12-01T08:21:24.671Z,101397.98
2022-12-01T08:23:55.784Z,101395.52
2022-12-01T08:26:26.763Z,101394.48
2022-12-01T08:28:55.940Z,101394.79
2022-12-01T08:31:28.938Z,101393.90
2022-12-01T08:33:58.501Z,101392.45
2022-12-01T08:36:27.017Z,101392.93
2022-12-01T08:38:56.372Z,101395.46
2022-12-01T08:41:25.398Z,101392.84
2022-12-01T08:43:59.247Z,101393.48
2022-12-01T08:46:38.069Z,101393.07
2022-12-01T08:49:07.452Z,101391.82
2022-12-01T08:51:36.484Z,101399.20
2022-12-01T08:54:08.334Z,101398.25
2022-12-01T08:56:44.211Z,101396.61
2022-12-01T08:59:13.256Z,101397.93
2022-12-01T09:01:53.855Z,101398.06
2022-12-01T09:04:26.181Z,101399.42
2022-12-01T09:06:56.934Z,101401.42
2022-12-01T09:09:28.795Z,101400.20
2022-12-01T09:11:57.533Z,101400.69
2022-12-01T09:14:26.038Z,101398.98
2022-12-01T09:16:57.562Z,101396.81
2022-12-01T09:19:31.431Z,101399.52
2022-12-01T09:22:00.925Z,101401.19
2022-12-01T09:24:29.534Z,101400.45
2022-12-01T09:27:00.121Z,101400.96
2022-12-01T09:29:29.226Z,101398.51
2022-12-01T09:31:59.803Z,101397.46
2022-12-01T09:34:29.295Z,101392.38
2022-12-01T09:36:58.900Z,101387.08
2022-12-01T09:39:28.401Z,101386.00
2022-12-01T09:42:06.161Z,101380.39
2022-12-01T09:44:47.717Z,101377.20
2022-12-01T09:47:31.201Z,101379.21
2022-12-01T09:50:25.342Z,101377.61
2022-12-01T09:53:08.464Z,101380.13
2022-12-01T09:55:37.142Z,101376.30
2022-12-01T09:58:17.669Z,101377.46
2022-12-01T10:00:49.264Z,101374.64
2022-12-01T10:03:45.703Z,101372.17
2022-12-01T10:06:29.164Z,101373.67
2022-12-01T10:09:24.586Z,101368.98
2022-12-01T10:12:01.716Z,101369.16
2022-12-01T10:14:34.079Z,101366.88
2022-12-01T10:17:44.297Z,101366.98
2022-12-01T10:20:26.673Z,101365.86
2022-12-01T10:23:19.518Z,101363.54
2022-12-01T10:25:58.156Z,101364.44
2022-12-01T10:29:16.107Z,101361.27
2022-12-01T10:31:58.412Z,101359.65
2022-12-01T10:34:37.779Z,101355.77
2022-12-01T10:37:14.725Z,101350.75
2022-12-01T10:39:47.813Z,101351.91
2022-12-01T10:42:42.691Z,101344.73
2022-12-01T10:45:40.685Z,101344.65
2022-12-01T10:48:15.718Z,101346.81
2022-12-01T10:50:56.091Z,101342.70
2022-12-01T10:53:25.392Z,101337.22
2022-12-01T10:56:20.278Z,101336.79
2022-12-01T10:58:58.609Z,101332.67
2022-12-01T11:01:34.752Z,101331.64
2022-12-01T11:04:25.427Z,101330.35
2022-12-01T11:06:54.162Z,101332.55
2022-12-01T11:09:29.544Z,101328.06
2022-12-01T11:12:02.715Z,101329.58
2022-12-01T11:14:47.588Z,101329.05
2022-12-01T11:17:33.376Z,101325.83
2022-12-01T11:20:34.431Z,101321.98
2022-12-01T11:23:25.644Z,101321.95
2022-12-01T11:26:25.233Z,101318.30
2022-12-01T11:29:25.411Z,101320.98
2022-12-01T11:31:54.413Z,101320.64
2022-12-01T11:34:34.572Z,101321.14
2022-12-01T11:37:15.691Z,101320.77
2022-12-01T11:39:47.872Z,101323.67
2022-12-01T11:42:30.754Z,101322.80
2022-12-01T11:45:22.527Z,101325.21
2022-12-01T11:48:06.958Z,101328.19
2022-12-01T11:50:39.257Z,101323.81
2022-12-01T11:53:37.694Z,101324.87
2022-12-01T11:56:30.234Z,101325.26
2022-12-01T11:59:13.244Z,101322.05
2022-12-01T12:02:13.787Z,101316.67
2022-12-01T12:05:19.333Z,101318.58
2022-12-01T12:08:07.632Z,101314.87
2022-12-01T12:10:51.901Z,101311.13
2022-12-01T12:13:56.965Z,101313.79
2022-12-01T12:16:55.843Z,101312.63
2022-12-01T12:20:09.608Z,101312.71
2022-12-01T12:22:55.201Z,101306.09
2022-12-01T12:25:53.123Z,101306.27
2022-12-01T12:28:49.659Z,101306.60
2022-12-01T12:31:56.349Z,101305.76
2022-12-01T12:34:45.858Z,101308.89
2022-12-01T12:37:29.514Z,101311.13
2022-12-01T12:40:49.100Z,101308.77
2022-12-01T12:43:43.342Z,101313.50
2022-12-01T12:46:19.877Z,101315.91
2022-12-01T12:49:21.184Z,101315.08
2022-12-01T12:52:12.783Z,101313.27
2022-12-01T12:55:02.415Z,101316.13
2022-12-01T12:57:45.487Z,101311.36
2022-12-01T13:00:21.755Z,101316.42
2022-12-01T13:03:17.885Z,101322.05
2022-12-01T13:06:08.061Z,101321.92
2022-12-01T13:08:53.787Z,101323.77
2022-12-01T13:11:34.117Z,101329.81
2022-12-01T13:14:26.967Z,101327.58
2022-12-01T13:17:14.888Z,101332.35
2022-12-01T13:19:46.110Z,101330.08
2022-12-01T13:22:18.148Z,101328.24
2022-12-01T13:24:46.742Z,101330.34
2022-12-01T13:27:23.238Z,101329.15
2022-12-01T13:29:56.488Z,101330.24
2022-12-01T13:32:40.950Z,101333.71
2022-12-01T13:35:36.994Z,101333.95
2022-12-01T13:38:34.550Z,101332.75
2022-12-01T13:41:18.516Z,101334.30
2022-12-01T13:44:21.292Z,101333.46
2022-12-01T13:46:58.247Z,101337.05
2022-12-01T13:49:53.466Z,101335.70
2022-12-01T13:52:22.145Z,101334.70
2022-12-01T13:55:27.033Z,101333.53
2022-12-01T13:58:15.649Z,101334.12
2022-12-01T14:00:44.590Z,101333.78
2022-12-01T14:03:13.299Z,101331.90
2022-12-01T14:05:41.916Z,101330.15
2022-12-01T14:08:33.128Z,101330.50
2022-12-01T14:11:17.513Z,101329.68
2022-12-01T14:13:57.772Z,101326.12
2022-12-01T14:16:46.788Z,101325.14
2022-12-01T14:19:36.979Z,101326.95
2022-12-01T14:22:08.027Z,101324.73
2022-12-01T14:24:53.194Z,101325.08
2022-12-01T14:27:42.258Z,101328.02
2022-12-01T14:30:42.154Z,101322.02
2022-12-01T14:33:52.333Z,101329.33
2022-12-01T14:36:23.856Z,101329.54
2022-12-01T14:39:12.928Z,101331.95
2022-12-01T14:41:58.969Z,101330.52
2022-12-01T14:44:33.826Z,101332.45
2022-12-01T14:47:23.615Z,101333.34
2022-12-01T14:50:25.374Z,101329.73
2022-12-01T14:53:01.583Z,101332.30
2022-12-01T14:55:50.936Z,101334.02
2022-12-01T14:58:27.641Z,101325.45
2022-12-01T15:01:12.490Z,101322.58
2022-12-01T15:03:48.883Z,101320.25
2022-12-01T15:06:20.945Z,101320.79
2022-12-01T15:12:09.091Z,101315.38
2022-12-01T15:14:47.290Z,101317.06
2022-12-01T15:17:34.756Z,101314.83
2022-12-01T15:20:24.968Z,101310.32
2022-12-01T15:22:54.671Z,101310.49
2022-12-01T15:25:24.084Z,101315.15
2022-12-01T15:28:16.569Z,101312.05
2022-12-01T15:30:51.872Z,101311.55
2022-12-01T15:33:32.749Z,101310.20
2022-12-01T15:36:06.689Z,101308.52
2022-12-01T15:38:38.014Z,101309.95
2022-12-01T15:44:02.119Z,101309.38
2022-12-01T15:46:34.707Z,101309.96
2022-12-01T15:49:24.504Z,101307.11
2022-12-01T15:51:53.838Z,101304.61
2022-12-01T15:54:27.407Z,101306.38
2022-12-01T15:56:58.778Z,101299.38
2022-12-01T15:59:41.557Z,101297.32
2022-12-01T16:02:32.871Z,101301.71
2022-12-01T16:05:03.189Z,101301.07
2022-12-01T16:08:12.228Z,101301.66
2022-12-01T16:10:34.020Z,101305.03
2022-12-01T16:13:40.417Z,101307.45
2022-12-01T16:16:47.705Z,101306.90
2022-12-01T16:19:19.049Z,101305.52
2022-12-01T16:22:11.697Z,101306.77
2022-12-01T16:24:48.775Z,101312.30
2022-12-01T16:27:30.292Z,101309.04
2022-12-01T16:30:06.425Z,101313.84
2022-12-01T16:32:42.721Z,101315.92
2022-12-01T16:35:26.528Z,101313.85
2022-12-01T16:37:55.294Z,101311.58
2022-12-01T16:40:24.428Z,101309.16
2022-12-01T16:42:52.998Z,101311.61
2022-12-01T16:45:21.614Z,101306.98
2022-12-01T16:47:50.238Z,101309.77
2022-12-01T16:50:21.783Z,101310.44
2022-12-01T16:52:50.354Z,101310.59
2022-12-01T16:55:54.047Z,101310.60
2022-12-01T16:58:23.494Z,101310.91
2022-12-01T17:00:52.795Z,101312.09
2022-12-01T17:03:25.464Z,101314.14
2022-12-01T17:05:55.339Z,101312.58
2022-12-01T17:08:23.895Z,101311.86
2022-12-01T17:10:53.484Z,101312.74
2022-12-01T17:13:23.517Z,101308.64
2022-12-01T17:15:55.152Z,101310.41
2022-12-01T17:18:24.304Z,101314.05
2022-12-01T17:21:08.461Z,101313.94
2022-12-01T17:23:38.866Z,101314.68
2022-12-01T17:26:16.044Z,101310.10
2022-12-01T17:28:44.789Z,101309.27
2022-12-01T17:31:14.498Z,101308.09
2022-12-01T17:33:43.100Z,101311.27
2022-12-01T17:36:14.044Z,101314.97
2022-12-01T17:38:47.917Z,101314.98
2022-12-01T17:41:24.796Z,101316.17
2022-12-01T17:43:53.379Z,101310.13
2022-12-01T17:46:21.986Z,101305.67
2022-12-01T17:48:50.623Z,101303.13
2022-12-01T17:51:19.217Z,101301.98
2022-12-01T17:53:47.820Z,101299.64
2022-12-01T17:56:17.611Z,101297.98
2022-12-01T17:58:46.277Z,101297.30
2022-12-01T18:01:17.696Z,101298.02
2022-12-01T18:03:47.611Z,101298.76
2022-12-01T18:06:18.609Z,101297.40
2022-12-01T18:08:47.306Z,101301.88
2022-12-01T18:11:17.113Z,101302.73
2022-12-01T18:13:50.001Z,101305.68
2022-12-01T18:16:27.812Z,101305.62
2022-12-01T18:18:58.563Z,101305.60
2022-12-01T18:21:28.338Z,101305.45
2022-12-01T18:24:01.008Z,101305.27
2022-12-01T18:26:32.625Z,101306.69
2022-12-01T18:29:06.841Z,101307.25
2022-12-01T18:31:35.694Z,101308.42
2022-12-01T18:34:07.241Z,101309.06
2022-12-01T18:36:39.566Z,101308.35
2022-12-01T18:39:10.845Z,101306.27
2022-12-01T18:41:39.578Z,101308.84
2022-12-01T18:44:08.493Z,101305.58
2022-12-01T18:46:37.812Z,101303.66
2022-12-01T18:49:09.099Z,101304.52
2022-12-01T18:51:39.104Z,101305.06
2022-12-01T18:54:11.947Z,101306.27
2022-12-01T18:56:40.613Z,101303.67
2022-12-01T18:59:13.623Z,101306.65
2022-12-01T19:01:44.251Z,101306.31
2022-12-01T19:04:15.705Z,101309.31
2022-12-01T19:06:46.371Z,101311.89
2022-12-01T19:09:16.300Z,101310.83
2022-12-01T19:11:44.928Z,101309.27
2022-12-01T19:14:17.657Z,101306.89
2022-12-01T19:16:46.544Z,101304.11
2022-12-01T19:19:15.118Z,101300.52
2022-12-01T19:21:45.265Z,101300.52
2022-12-01T19:24:14.027Z,101297.05
2022-12-01T19:26:42.945Z,101298.11
2022-12-01T19:29:11.671Z,101293.70
2022-12-01T19:31:40.860Z,101296.69
2022-12-01T19:34:09.597Z,101294.33
2022-12-01T19:36:38.201Z,101294.61
2022-12-01T19:39:07.863Z,101294.69
2022-12-01T19:41:39.263Z,101298.73
2022-12-01T19:44:09.571Z,101300.19
2022-12-01T19:46:38.252Z,101297.98
2022-12-01T19:49:07.224Z,101302.80
2022-12-01T19:51:39.306Z,101300.19
2022-12-01T19:54:17.643Z,101300.83
2022-12-01T19:56:46.836Z,101295.66
2022-12-01T19:59:15.510Z,101297.88
2022-12-01T20:01:44.316Z,101297.16
2022-12-01T20:04:13.470Z,101300.95
2022-12-01T20:06:42.240Z,101300.08
2022-12-01T20:09:11.094Z,101302.54
2022-12-01T20:11:39.838Z,101302.02
2022-12-01T20:14:09.535Z,101299.45
2022-12-01T20:16:38.497Z,101301.02
2022-12-01T20:19:07.724Z,101296.90
2022-12-01T20:21:42.523Z,101296.57
2022-12-01T20:24:15.240Z,101298.30
2022-12-01T20:26:47.831Z,101298.50
2022-12-01T20:29:23.701Z,101297.48
2022-12-01T20:31:55.213Z,101300.80
2022-12-01T20:34:35.000Z,101302.02
2022-12-01T20:37:05.048Z,101300.33
2022-12-01T20:39:35.785Z,101294.81
2022-12-01T20:42:06.090Z,101291.05
2022-12-01T20:44:35.251Z,101291.80
2022-12-01T20:47:04.513Z,101291.17
2022-12-01T20:49:33.120Z,101293.70
2022-12-01T20:52:01.706Z,101289.77
2022-12-01T20:54:31.018Z,101294.64
2022-12-01T20:56:59.759Z,101292.98
2022-12-01T20:59:29.221Z,101290.59
2022-12-01T21:01:57.983Z,101290.77
2022-12-01T21:04:26.627Z,101290.59
2022-12-01T21:06:57.931Z,101292.53
2022-12-01T21:09:26.677Z,101292.75
2022-12-01T21:12:16.818Z,101285.94
2022-12-01T21:14:59.773Z,101287.31
2022-12-01T21:17:28.271Z,101284.31
2022-12-01T21:20:11.775Z,101287.48
2022-12-01T21:22:40.436Z,101288.19
2022-12-01T21:25:16.820Z,101286.85
2022-12-01T21:27:47.310Z,101282.40
2022-12-01T21:30:28.719Z,101285.35
2022-12-01T21:33:22.675Z,101286.23
2022-12-01T21:35:52.383Z,101286.50
2022-12-01T21:38:22.280Z,101285.40
2022-12-01T21:40:50.928Z,101286.17
2022-12-01T21:43:23.085Z,101287.98
2022-12-01T21:46:13.293Z,101289.81
2022-12-01T21:48:42.570Z,101290.61
2022-12-01T21:51:25.137Z,101285.26
2022-12-01T21:53:56.175Z,101282.87
2022-12-01T21:56:28.223Z,101284.27
2022-12-01T21:59:02.899Z,101284.66
2022-12-01T22:01:32.975Z,101282.23
2022-12-01T22:04:10.970Z,101280.86
2022-12-01T22:06:44.740Z,101283.84
2022-12-01T22:09:26.316Z,101281.95
2022-12-01T22:12:20.571Z,101280.38
2022-12-01T22:14:50.099Z,101276.30
2022-12-01T22:17:22.881Z,101277.42
2022-12-01T22:20:15.085Z,101280.23
2022-12-01T22:22:43.852Z,101277.20
2022-12-01T22:25:26.761Z,101283.63
2022-12-01T22:27:56.148Z,101281.11
2022-12-01T22:30:24.670Z,101273.62
2022-12-01T22:33:05.509Z,101277.44
2022-12-01T22:35:45.819Z,101277.09
2022-12-01T22:38:36.040Z,101275.22
2022-12-01T22:41:16.503Z,101280.60
2022-12-01T22:44:01.599Z,101277.38
2022-12-01T22:46:40.023Z,101277.17
2022-12-01T22:49:20.853Z,101274.41
2022-12-01T22:52:28.637Z,101274.63
2022-12-01T22:54:57.154Z,101270.52
2022-12-01T22:57:33.542Z,101268.80
2022-12-01T23:00:19.094Z,101267.66
2022-12-01T23:02:54.910Z,101267.88
2022-12-01T23:05:25.970Z,101266.48
2022-12-01T23:07:55.694Z,101260.20
2022-12-01T23:10:35.263Z,101258.07
2022-12-01T23:13:25.204Z,101258.89
2022-12-01T23:15:54.289Z,101249.15
2022-12-01T23:18:25.300Z,101251.69
2022-12-01T23:20:57.387Z,101248.91
2022-12-01T23:23:31.968Z,101249.59
2022-12-01T23:26:08.684Z,101247.38
2022-12-01T23:28:39.227Z,101246.85
2022-12-01T23:31:09.216Z,101239.28
2022-12-01T23:33:37.926Z,101237.91
2022-12-01T23:36:16.424Z,101235.12
2022-12-01T23:38:49.997Z,101233.56
2022-12-01T23:41:47.033Z,101234.28
2022-12-01T23:44:40.936Z,101232.76
2022-12-01T23:47:20.390Z,101233.50
2022-12-01T23:50:02.175Z,101226.30
2022-12-01T23:52:36.475Z,101226.66
2022-12-01T23:55:19.614Z,101223.95
2022-12-01T23:57:48.663Z,101226.79
